createdAt,value
2017-08-09T00:02:07.888Z,20.70
2017-08-09T00:04:38.215Z,20.70
2017-08-09T00:07:08.526Z,20.60
2017-08-09T00:09:38.108Z,20.60
2017-08-09T00:12:07.660Z,20.60
2017-08-09T00:14:37.986Z,20.40
2017-08-09T00:17:08.316Z,20.50
2017-08-09T00:19:37.957Z,20.40
2017-08-09T00:22:07.513Z,20.50
2017-08-09T00:24:36.858Z,20.60
2017-08-09T00:27:06.407Z,20.60
2017-08-09T00:29:35.980Z,20.60
2017-08-09T00:32:05.579Z,20.60
2017-08-09T00:34:35.121Z,20.60
2017-08-09T00:37:04.764Z,20.60
2017-08-09T00:39:35.094Z,20.60
2017-08-09T00:42:05.454Z,20.60
2017-08-09T00:44:35.044Z,20.60
2017-08-09T00:47:05.222Z,20.50
2017-08-09T00:49:34.784Z,20.40
2017-08-09T00:52:04.357Z,20.40
2017-08-09T00:54:34.653Z,20.50
2017-08-09T00:57:04.390Z,20.50
2017-08-09T00:59:34.699Z,20.50
2017-08-09T01:02:04.259Z,20.50
2017-08-09T01:04:33.822Z,20.40
2017-08-09T01:07:03.352Z,20.50
2017-08-09T01:09:32.962Z,20.50
2017-08-09T01:12:02.525Z,20.60
2017-08-09T01:14:32.063Z,20.60
2017-08-09T01:17:02.428Z,20.50
2017-08-09T01:19:31.989Z,20.50
2017-08-09T01:22:02.318Z,20.40
2017-08-09T01:24:32.617Z,20.00
2017-08-09T01:27:02.173Z,20.00
2017-08-09T01:29:31.729Z,20.00
2017-08-09T01:32:01.292Z,20.10
2017-08-09T01:34:30.812Z,20.10
2017-08-09T01:37:00.011Z,20.20
2017-08-09T01:39:29.235Z,20.30
2017-08-09T01:41:58.754Z,20.20
2017-08-09T01:44:28.295Z,20.00
2017-08-09T01:46:57.861Z,19.90
2017-08-09T01:49:27.054Z,19.90
2017-08-09T01:51:56.581Z,20.10
2017-08-09T01:54:25.436Z,20.00
2017-08-09T01:56:54.606Z,20.10
2017-08-09T01:59:23.819Z,20.00
2017-08-09T02:01:52.870Z,19.90
2017-08-09T02:04:23.169Z,19.90
2017-08-09T02:06:52.754Z,19.90
2017-08-09T02:09:22.277Z,19.90
2017-08-09T02:11:51.814Z,19.60
2017-08-09T02:14:22.144Z,19.50
2017-08-09T02:16:52.514Z,19.30
2017-08-09T02:19:21.687Z,19.30
2017-08-09T02:21:51.256Z,19.20
2017-08-09T02:24:20.787Z,19.20
2017-08-09T02:26:51.109Z,19.10
2017-08-09T02:29:21.466Z,19.20
2017-08-09T02:31:51.013Z,19.10
2017-08-09T02:34:20.592Z,19.00
2017-08-09T02:36:50.130Z,18.90
2017-08-09T02:39:22.687Z,18.80
2017-08-09T02:41:52.239Z,18.70
2017-08-09T02:44:22.530Z,18.60
2017-08-09T02:46:52.159Z,18.60
2017-08-09T02:49:22.520Z,18.60
2017-08-09T02:51:52.105Z,18.60
2017-08-09T02:54:22.404Z,18.60
2017-08-09T02:56:51.925Z,18.60
2017-08-09T02:59:22.228Z,18.70
2017-08-09T03:01:51.780Z,18.70
2017-08-09T03:04:21.355Z,18.70
2017-08-09T03:06:50.896Z,18.70
2017-08-09T03:09:20.437Z,18.70
2017-08-09T03:11:50.028Z,18.60
2017-08-09T03:14:19.603Z,18.60
2017-08-09T03:16:49.896Z,18.60
2017-08-09T03:19:19.453Z,18.60
2017-08-09T03:21:49.006Z,18.60
2017-08-09T03:24:18.529Z,18.50
2017-08-09T03:26:48.189Z,18.50
2017-08-09T03:29:17.738Z,18.50
2017-08-09T03:31:47.336Z,18.50
2017-08-09T03:34:16.873Z,18.50
2017-08-09T03:36:47.225Z,18.60
2017-08-09T03:39:16.774Z,18.50
2017-08-09T03:41:46.360Z,18.50
2017-08-09T03:44:15.906Z,18.50
2017-08-09T03:46:45.111Z,18.60
2017-08-09T03:49:15.451Z,18.50
2017-08-09T03:51:45.762Z,18.40
2017-08-09T03:54:16.078Z,18.30
2017-08-09T03:56:45.623Z,18.30
2017-08-09T03:59:15.141Z,18.40
2017-08-09T04:01:44.698Z,18.40
2017-08-09T04:04:15.213Z,18.50
2017-08-09T04:06:44.780Z,18.50
2017-08-09T04:09:14.352Z,18.40
2017-08-09T04:11:44.669Z,18.40
2017-08-09T04:14:14.219Z,18.40
2017-08-09T04:16:43.787Z,18.50
2017-08-09T04:19:13.759Z,18.80
2017-08-09T04:21:43.331Z,18.70
2017-08-09T04:24:12.888Z,18.90
2017-08-09T04:26:42.452Z,18.80
2017-08-09T04:29:12.077Z,18.80
2017-08-09T04:31:41.638Z,18.90
2017-08-09T04:34:11.918Z,18.80
2017-08-09T04:36:41.505Z,18.90
2017-08-09T04:39:11.042Z,18.90
2017-08-09T04:41:40.598Z,19.00
2017-08-09T04:44:10.903Z,19.10
2017-08-09T04:46:40.480Z,19.20
2017-08-09T04:49:10.038Z,19.20
2017-08-09T04:51:39.584Z,19.20
2017-08-09T04:54:09.127Z,19.20
2017-08-09T04:56:38.311Z,19.20
2017-08-09T04:59:07.877Z,19.30
2017-08-09T05:01:37.415Z,19.30
2017-08-09T05:04:06.976Z,19.30
2017-08-09T05:06:36.571Z,19.50
2017-08-09T05:09:05.939Z,19.60
2017-08-09T05:11:35.512Z,19.60
2017-08-09T05:14:05.055Z,19.60
2017-08-09T05:16:34.599Z,19.80
2017-08-09T05:19:04.146Z,20.00
2017-08-09T05:21:33.684Z,20.20
2017-08-09T05:24:03.212Z,20.40
2017-08-09T05:26:33.530Z,20.50
2017-08-09T05:29:03.838Z,20.90
2017-08-09T05:31:33.370Z,20.80
2017-08-09T05:34:03.668Z,21.50
2017-08-09T05:36:33.248Z,21.50
2017-08-09T05:39:02.642Z,21.30
2017-08-09T05:41:32.193Z,21.30
2017-08-09T05:44:02.489Z,21.20
2017-08-09T05:46:32.036Z,21.10
2017-08-09T05:49:02.359Z,20.50
2017-08-09T05:51:32.684Z,20.50
2017-08-09T05:54:02.204Z,20.50
2017-08-09T05:56:32.495Z,20.90
2017-08-09T05:59:02.028Z,20.90
2017-08-09T06:01:31.574Z,21.10
2017-08-09T06:04:01.152Z,21.30
2017-08-09T06:06:30.722Z,21.50
2017-08-09T06:09:00.334Z,21.50
2017-08-09T06:11:30.108Z,21.40
2017-08-09T06:13:59.636Z,21.40
2017-08-09T06:16:29.163Z,21.40
2017-08-09T06:18:58.769Z,21.20
2017-08-09T06:21:28.282Z,20.90
2017-08-09T06:23:57.833Z,21.00
2017-08-09T06:26:27.367Z,21.20
2017-08-09T06:28:56.930Z,21.30
2017-08-09T06:31:26.493Z,21.40
2017-08-09T06:33:56.031Z,21.50
2017-08-09T06:36:26.431Z,21.60
2017-08-09T06:38:55.954Z,21.60
2017-08-09T06:41:25.524Z,21.60
2017-08-09T06:43:55.064Z,21.70
2017-08-09T06:46:25.401Z,21.80
2017-08-09T06:48:55.756Z,21.90
2017-08-09T06:51:25.415Z,21.90
2017-08-09T06:53:55.747Z,22.00
2017-08-09T06:56:26.105Z,22.40
2017-08-09T06:58:55.668Z,22.30
2017-08-09T07:01:25.191Z,22.70
2017-08-09T07:03:55.534Z,23.30
2017-08-09T07:06:25.066Z,23.20
2017-08-09T07:08:54.623Z,23.50
2017-08-09T07:11:24.957Z,23.60
2017-08-09T07:13:55.252Z,23.50
2017-08-09T07:16:24.836Z,23.50
2017-08-09T07:18:54.361Z,23.60
2017-08-09T07:21:23.953Z,24.00
2017-08-09T07:23:53.498Z,23.90
2017-08-09T07:26:23.823Z,23.80
2017-08-09T07:28:53.337Z,23.80
2017-08-09T07:31:23.666Z,23.70
2017-08-09T07:33:53.979Z,23.30
2017-08-09T07:36:23.526Z,23.20
2017-08-09T07:38:53.098Z,23.30
2017-08-09T07:41:23.460Z,23.00
2017-08-09T07:43:53.080Z,23.00
2017-08-09T07:46:22.634Z,23.20
2017-08-09T07:48:52.179Z,23.50
2017-08-09T07:51:22.005Z,23.40
2017-08-09T07:53:51.517Z,23.10
2017-08-09T07:56:21.142Z,23.10
2017-08-09T07:58:50.730Z,22.90
2017-08-09T08:01:20.266Z,23.50
2017-08-09T08:03:49.820Z,23.60
2017-08-09T08:06:19.403Z,23.50
2017-08-09T08:08:49.732Z,23.30
2017-08-09T08:11:20.077Z,23.30
2017-08-09T08:13:49.654Z,23.30
2017-08-09T08:16:19.229Z,23.70
2017-08-09T08:18:48.792Z,23.90
2017-08-09T08:21:18.570Z,23.60
2017-08-09T08:23:48.097Z,23.30
2017-08-09T08:26:18.518Z,23.50
2017-08-09T08:28:48.839Z,24.00
2017-08-09T08:31:18.381Z,24.00
2017-08-09T08:33:47.920Z,23.60
2017-08-09T08:36:17.475Z,24.00
2017-08-09T08:38:47.759Z,23.60
2017-08-09T08:41:17.295Z,23.60
2017-08-09T08:43:47.580Z,24.00
2017-08-09T08:46:17.132Z,24.00
2017-08-09T08:48:47.437Z,24.50
2017-08-09T08:51:16.654Z,24.50
2017-08-09T08:53:46.192Z,24.60
2017-08-09T08:56:15.727Z,24.80
2017-08-09T08:58:45.269Z,24.70
2017-08-09T09:01:15.640Z,24.80
2017-08-09T09:03:45.224Z,24.80
2017-08-09T09:06:14.763Z,24.50
2017-08-09T09:08:44.319Z,24.60
2017-08-09T09:11:14.639Z,24.90
2017-08-09T09:13:45.143Z,24.50
2017-08-09T09:16:14.687Z,24.50
2017-08-09T09:18:44.996Z,24.80
2017-08-09T09:21:14.582Z,24.80
2017-08-09T09:23:44.234Z,24.80
2017-08-09T09:26:13.775Z,25.10
2017-08-09T09:28:43.298Z,25.30
2017-08-09T09:31:12.845Z,25.50
2017-08-09T09:33:43.161Z,25.70
2017-08-09T09:36:13.499Z,25.70
2017-08-09T09:38:43.035Z,25.70
2017-08-09T09:41:12.577Z,26.10
2017-08-09T09:43:42.125Z,26.10
2017-08-09T09:46:11.645Z,26.00
2017-08-09T09:48:41.221Z,26.00
2017-08-09T09:51:11.533Z,26.00
2017-08-09T09:53:41.070Z,26.00
2017-08-09T09:56:10.592Z,25.70
2017-08-09T09:58:40.126Z,26.00
2017-08-09T10:01:10.425Z,26.20
2017-08-09T10:03:39.946Z,26.20
2017-08-09T10:06:09.498Z,25.90
2017-08-09T10:08:39.789Z,26.10
2017-08-09T10:11:09.366Z,26.00
2017-08-09T10:13:38.934Z,26.60
2017-08-09T10:16:09.255Z,26.80
2017-08-09T10:18:38.789Z,26.80
2017-08-09T10:21:08.317Z,26.80
2017-08-09T10:23:37.862Z,26.90
2017-08-09T10:26:07.387Z,27.20
2017-08-09T10:28:37.753Z,27.00
2017-08-09T10:31:07.266Z,27.00
2017-08-09T10:33:36.820Z,26.90
2017-08-09T10:36:06.394Z,27.30
2017-08-09T10:38:35.963Z,27.60
2017-08-09T10:41:05.501Z,27.10
2017-08-09T10:43:35.060Z,26.90
2017-08-09T10:46:05.365Z,27.40
2017-08-09T10:48:34.942Z,27.40
2017-08-09T10:51:04.494Z,27.80
2017-08-09T10:53:34.810Z,28.90
2017-08-09T10:56:04.373Z,28.80
2017-08-09T10:58:33.574Z,29.40
2017-08-09T11:01:03.204Z,30.00
2017-08-09T11:03:32.765Z,30.20
2017-08-09T11:06:02.309Z,30.90
2017-08-09T11:08:31.842Z,30.70
2017-08-09T11:11:01.393Z,30.50
2017-08-09T11:13:30.925Z,30.80
2017-08-09T11:16:00.567Z,30.90
2017-08-09T11:18:30.138Z,30.60
2017-08-09T11:20:59.672Z,29.70
2017-08-09T11:23:29.237Z,29.90
2017-08-09T11:25:59.076Z,30.40
2017-08-09T11:28:28.654Z,30.10
2017-08-09T11:30:58.227Z,29.90
2017-08-09T11:33:28.549Z,28.60
2017-08-09T11:35:58.894Z,29.10
2017-08-09T11:38:28.482Z,29.10
2017-08-09T11:40:58.793Z,29.40
2017-08-09T11:43:28.349Z,29.40
2017-08-09T11:45:57.866Z,29.50
2017-08-09T11:48:27.431Z,29.40
2017-08-09T11:50:56.997Z,29.60
2017-08-09T11:53:26.547Z,29.80
2017-08-09T11:55:56.101Z,29.40
2017-08-09T11:58:25.632Z,29.70
2017-08-09T12:00:55.211Z,30.50
2017-08-09T12:03:24.806Z,32.80
2017-08-09T12:05:54.376Z,34.60
2017-08-09T12:08:24.727Z,35.30
2017-08-09T12:10:54.279Z,35.20
2017-08-09T12:13:23.847Z,36.70
2017-08-09T12:15:53.416Z,38.00
2017-08-09T12:18:22.962Z,37.90
2017-08-09T12:20:52.511Z,37.70
2017-08-09T12:23:22.061Z,36.80
2017-08-09T12:25:51.653Z,37.50
2017-08-09T12:28:22.037Z,41.70
2017-08-09T12:30:51.579Z,41.70
2017-08-09T12:33:21.910Z,42.40
2017-08-09T12:35:52.535Z,41.60
2017-08-09T12:38:22.840Z,43.50
2017-08-09T12:40:52.179Z,43.40
2017-08-09T12:43:21.849Z,43.50
2017-08-09T12:45:51.386Z,41.90
2017-08-09T12:48:21.756Z,43.20
2017-08-09T12:50:51.973Z,43.20
2017-08-09T12:53:21.539Z,43.00
2017-08-09T12:55:51.920Z,43.50
2017-08-09T12:58:21.499Z,43.40
2017-08-09T13:00:51.010Z,44.20
2017-08-09T13:03:20.209Z,40.50
2017-08-09T13:05:49.804Z,39.00
2017-08-09T13:08:18.811Z,38.40
2017-08-09T13:10:48.842Z,38.70
2017-08-09T13:13:18.447Z,40.30
2017-08-09T13:15:48.152Z,40.00
2017-08-09T13:18:17.395Z,40.40
2017-08-09T13:20:46.951Z,41.60
2017-08-09T13:23:16.533Z,43.40
2017-08-09T13:25:46.854Z,44.10
2017-08-09T13:28:17.191Z,44.80
2017-08-09T13:30:46.756Z,44.70
2017-08-09T13:33:16.294Z,45.70
2017-08-09T13:35:46.636Z,44.90
2017-08-09T13:38:17.185Z,44.90
2017-08-09T13:40:46.820Z,44.70
2017-08-09T13:43:16.380Z,45.00
2017-08-09T13:45:46.029Z,45.40
2017-08-09T13:48:17.571Z,44.60
2017-08-09T13:50:47.146Z,44.80
2017-08-09T13:53:18.207Z,45.30
2017-08-09T13:55:47.785Z,44.40
2017-08-09T13:58:18.349Z,44.50
2017-08-09T14:00:47.959Z,44.50
2017-08-09T14:03:17.568Z,44.00
2017-08-09T14:05:47.196Z,44.10
2017-08-09T14:08:16.781Z,43.60
2017-08-09T14:10:47.109Z,43.70
2017-08-09T14:13:16.772Z,43.60
2017-08-09T14:15:46.350Z,42.80
2017-08-09T14:18:15.995Z,43.50
2017-08-09T14:20:45.844Z,42.10
2017-08-09T14:23:15.485Z,43.00
2017-08-09T14:25:45.194Z,43.90
2017-08-09T14:28:15.271Z,44.20
2017-08-09T14:30:45.429Z,44.10
2017-08-09T14:33:15.518Z,44.40
2017-08-09T14:35:46.124Z,44.30
2017-08-09T14:38:16.465Z,40.70
2017-08-09T14:40:46.071Z,40.60
2017-08-09T14:43:15.883Z,40.60
2017-08-09T14:45:45.466Z,40.70
2017-08-09T14:48:15.818Z,40.60
2017-08-09T14:50:45.743Z,40.60
2017-08-09T14:53:15.442Z,43.00
2017-08-09T14:55:45.094Z,44.40
2017-08-09T14:58:14.828Z,44.10
2017-08-09T15:00:45.560Z,42.50
2017-08-09T15:03:15.251Z,42.90
2017-08-09T15:05:44.890Z,42.60
2017-08-09T15:08:15.282Z,39.20
2017-08-09T15:10:44.845Z,39.10
2017-08-09T15:13:14.536Z,38.30
2017-08-09T15:15:44.130Z,37.10
2017-08-09T15:18:13.799Z,36.30
2017-08-09T15:20:43.369Z,35.60
2017-08-09T15:23:12.992Z,35.10
2017-08-09T15:25:42.528Z,34.40
2017-08-09T15:28:12.114Z,35.70
2017-08-09T15:30:41.721Z,37.90
2017-08-09T15:33:11.434Z,39.50
2017-08-09T15:35:41.009Z,40.40
2017-08-09T15:38:11.305Z,42.90
2017-08-09T15:40:40.942Z,42.90
2017-08-09T15:43:11.264Z,44.20
2017-08-09T15:45:41.642Z,43.60
2017-08-09T15:48:11.252Z,43.60
2017-08-09T15:50:40.876Z,41.80
2017-08-09T15:53:10.525Z,41.90
2017-08-09T15:55:40.872Z,42.00
2017-08-09T15:58:10.413Z,41.90
2017-08-09T16:00:40.024Z,42.40
2017-08-09T16:03:09.592Z,41.80
2017-08-09T16:05:39.172Z,41.30
2017-08-09T16:08:09.508Z,39.60
2017-08-09T16:10:39.845Z,39.10
2017-08-09T16:13:09.436Z,39.10
2017-08-09T16:15:39.802Z,38.50
2017-08-09T16:18:09.439Z,38.50
2017-08-09T16:20:38.990Z,40.10
2017-08-09T16:23:08.617Z,41.10
2017-08-09T16:25:38.158Z,40.30
2017-08-09T16:28:07.826Z,39.30
2017-08-09T16:30:37.538Z,40.30
2017-08-09T16:33:07.187Z,39.50
2017-08-09T16:35:36.750Z,40.30
2017-08-09T16:38:06.279Z,40.50
2017-08-09T16:40:35.852Z,40.10
2017-08-09T16:43:05.417Z,39.50
2017-08-09T16:45:34.999Z,39.60
2017-08-09T16:48:04.865Z,39.20
2017-08-09T16:50:35.181Z,39.50
2017-08-09T16:53:04.766Z,39.50
2017-08-09T16:55:34.291Z,39.70
2017-08-09T16:58:04.057Z,39.10
2017-08-09T17:00:33.859Z,39.60
2017-08-09T17:03:03.399Z,39.50
2017-08-09T17:05:32.950Z,39.20
2017-08-09T17:08:03.245Z,38.70
2017-08-09T17:10:32.820Z,38.70
2017-08-09T17:13:02.355Z,37.50
2017-08-09T17:15:31.904Z,37.30
2017-08-09T17:18:01.447Z,37.40
2017-08-09T17:20:30.983Z,36.90
2017-08-09T17:23:00.701Z,36.50
2017-08-09T17:25:30.265Z,37.30
2017-08-09T17:27:59.983Z,36.40
2017-08-09T17:30:29.526Z,36.50
2017-08-09T17:32:59.077Z,36.80
2017-08-09T17:35:28.631Z,36.80
2017-08-09T17:37:58.551Z,36.40
2017-08-09T17:40:29.722Z,36.30
2017-08-09T17:42:59.278Z,35.60
2017-08-09T17:45:28.825Z,35.30
2017-08-09T17:47:58.364Z,34.90
2017-08-09T17:50:27.994Z,34.20
2017-08-09T17:52:57.523Z,32.90
2017-08-09T17:55:27.080Z,31.90
2017-08-09T17:57:56.643Z,31.10
2017-08-09T18:00:26.225Z,30.40
2017-08-09T18:02:55.585Z,30.00
2017-08-09T18:05:25.133Z,29.70
2017-08-09T18:07:54.838Z,29.50
2017-08-09T18:10:24.369Z,29.10
2017-08-09T18:12:53.954Z,29.00
2017-08-09T18:15:23.464Z,28.80
2017-08-09T18:17:53.012Z,28.50
2017-08-09T18:20:23.360Z,27.90
2017-08-09T18:22:52.915Z,27.90
2017-08-09T18:25:22.442Z,27.80
2017-08-09T18:27:51.966Z,27.60
2017-08-09T18:30:22.295Z,27.20
2017-08-09T18:32:51.853Z,27.10
2017-08-09T18:35:21.412Z,27.00
2017-08-09T18:37:50.972Z,26.90
2017-08-09T18:40:20.503Z,27.00
2017-08-09T18:42:50.979Z,26.90
2017-08-09T18:45:20.567Z,26.90
2017-08-09T18:47:50.149Z,26.70
2017-08-09T18:50:20.495Z,26.30
2017-08-09T18:52:50.052Z,26.20
2017-08-09T18:55:19.688Z,26.20
2017-08-09T18:57:50.039Z,26.00
2017-08-09T19:00:19.581Z,26.00
2017-08-09T19:02:49.131Z,25.90
2017-08-09T19:05:19.480Z,25.60
2017-08-09T19:07:49.038Z,25.60
2017-08-09T19:10:18.622Z,25.50
2017-08-09T19:12:48.189Z,25.50
2017-08-09T19:15:17.821Z,25.50
2017-08-09T19:17:47.362Z,25.50
2017-08-09T19:20:16.940Z,25.50
2017-08-09T19:22:46.493Z,25.40
2017-08-09T19:25:16.283Z,25.30
2017-08-09T19:27:45.868Z,25.20
2017-08-09T19:30:15.466Z,25.30
2017-08-09T19:32:45.036Z,25.40
2017-08-09T19:35:16.497Z,25.30
2017-08-09T19:37:46.820Z,25.30
2017-08-09T19:40:17.139Z,25.30
2017-08-09T19:42:47.436Z,25.30
2017-08-09T19:45:17.016Z,25.30
2017-08-09T19:47:46.622Z,25.40
2017-08-09T19:50:16.164Z,25.40
2017-08-09T19:52:45.743Z,25.30
2017-08-09T19:55:15.307Z,25.30
2017-08-09T19:57:45.613Z,25.20
2017-08-09T20:00:15.166Z,25.20
2017-08-09T20:02:44.783Z,25.30
2017-08-09T20:05:14.396Z,25.30
2017-08-09T20:07:44.054Z,25.30
2017-08-09T20:10:14.371Z,25.20
2017-08-09T20:12:43.918Z,25.20
2017-08-09T20:15:13.491Z,25.10
2017-08-09T20:17:43.801Z,24.90
2017-08-09T20:20:13.360Z,24.90
2017-08-09T20:22:42.938Z,24.80
2017-08-09T20:25:13.958Z,24.70
2017-08-09T20:27:43.546Z,24.70
2017-08-09T20:30:13.093Z,24.70
2017-08-09T20:32:42.643Z,24.80
2017-08-09T20:35:12.189Z,24.60
2017-08-09T20:37:41.743Z,24.50
2017-08-09T20:40:11.339Z,24.50
2017-08-09T20:42:40.683Z,24.50
2017-08-09T20:45:11.057Z,24.50
2017-08-09T20:47:41.395Z,24.40
2017-08-09T20:50:11.295Z,24.40
2017-08-09T20:52:41.657Z,24.40
2017-08-09T20:55:10.982Z,24.30
2017-08-09T20:57:40.543Z,24.30
2017-08-09T21:00:10.114Z,24.20
2017-08-09T21:02:39.729Z,24.10
2017-08-09T21:05:09.280Z,24.10
2017-08-09T21:07:38.812Z,24.00
2017-08-09T21:10:08.351Z,24.00
2017-08-09T21:12:37.910Z,24.10
2017-08-09T21:15:07.474Z,24.10
2017-08-09T21:17:37.979Z,24.10
2017-08-09T21:20:07.535Z,24.10
2017-08-09T21:22:37.108Z,24.00
2017-08-09T21:25:06.682Z,24.00
2017-08-09T21:27:36.315Z,23.90
2017-08-09T21:30:05.833Z,23.80
2017-08-09T21:32:36.122Z,24.00
2017-08-09T21:35:05.689Z,24.00
2017-08-09T21:37:35.221Z,24.00
2017-08-09T21:40:04.814Z,24.10
2017-08-09T21:42:33.995Z,24.10
2017-08-09T21:45:03.529Z,24.10
2017-08-09T21:47:33.103Z,23.90
2017-08-09T21:50:03.405Z,23.70
2017-08-09T21:52:32.950Z,23.70
2017-08-09T21:55:02.515Z,23.70
2017-08-09T21:57:32.046Z,23.70
2017-08-09T22:00:02.361Z,23.90
2017-08-09T22:02:32.646Z,23.90
2017-08-09T22:05:02.202Z,23.90
2017-08-09T22:07:32.489Z,23.80
2017-08-09T22:10:02.115Z,23.80
2017-08-09T22:12:31.687Z,23.80
2017-08-09T22:15:01.225Z,23.80
2017-08-09T22:17:30.960Z,23.90
2017-08-09T22:20:01.233Z,23.90
2017-08-09T22:22:30.783Z,23.90
2017-08-09T22:25:01.086Z,23.90
2017-08-09T22:27:30.960Z,23.90
2017-08-09T22:30:00.509Z,23.90
2017-08-09T22:32:30.035Z,23.70
2017-08-09T22:35:00.318Z,23.50
2017-08-09T22:37:29.903Z,23.50
2017-08-09T22:39:59.461Z,23.40
2017-08-09T22:42:29.018Z,23.40
2017-08-09T22:44:58.606Z,23.30
2017-08-09T22:47:28.161Z,23.20
2017-08-09T22:49:57.682Z,23.10
2017-08-09T22:52:27.408Z,23.00
2017-08-09T22:54:57.689Z,23.00
2017-08-09T22:57:27.233Z,23.00
2017-08-09T22:59:57.524Z,22.60
2017-08-09T23:02:27.090Z,22.50
2017-08-09T23:04:56.629Z,22.00
2017-08-09T23:07:26.209Z,21.70
2017-08-09T23:09:55.808Z,21.10
2017-08-09T23:12:25.040Z,20.90
2017-08-09T23:14:54.558Z,20.30
2017-08-09T23:17:24.127Z,20.10
2017-08-09T23:19:53.672Z,19.80
2017-08-09T23:22:23.246Z,19.10
2017-08-09T23:24:52.801Z,18.80
2017-08-09T23:27:22.354Z,18.80
2017-08-09T23:29:51.936Z,18.90
2017-08-09T23:32:21.488Z,18.80
2017-08-09T23:34:51.186Z,18.80
2017-08-09T23:37:20.749Z,18.70
2017-08-09T23:39:50.315Z,18.90
2017-08-09T23:42:19.878Z,18.90
2017-08-09T23:44:50.193Z,18.90
2017-08-09T23:47:19.797Z,18.90
2017-08-09T23:49:50.119Z,19.20
2017-08-09T23:52:19.693Z,19.10
2017-08-09T23:54:49.255Z,19.20
2017-08-09T23:57:19.600Z,19.30
2017-08-09T23:59:49.146Z,19.30
